15  °C
Temperature
59  °F
Temperature
59  °F
 Dewpoint
15  °C
  Dewpoint
100  %
 Humidity
  Temperature
0  km/h
Wind Speed
0  kts
Wind Speed
0  mph
Wind Speed
0  m/s
Wind Speed
Calm
Due North

Wind Speed
Partly Cloudy
Conditions
Pressure 1009.92 (hPa) - 29.82 (inHG)
Visibility 10.0 (km) - 6.2 (mi)

Sky Conditions
LGSA
Location Chania International 80 km (49.72 mi)
Metar :LGSA 132150Z 00000KT 9999 FEW010 FEW018TCU SCT025 BKN080 15/15 Q1010
Thu 14th November 00:50 am

Nearest Airport
https://www.checkwx.com/weather/LGSA
  Metar Aviation API Data Provided by https://www.checkwx.com/ Original CSS/SVG/PHP scripts by weather34.com © 2015-2019